This is the latest recevied weather packets stored in our database for station/object N0AOL-13. If no packets are shown the sender has not sent any weather packets the latest 10 day(s).
| Time | Temp. | Humidity | Pressure | Rain* | Wind** | Luminosity | Snow |
|---|---|---|---|---|---|---|---|
| 1777643116 | 7.78° C | 52% | 1018.9 hPa | 0 mm | - | 253 W/m² | - |
| 1777640416 | 2.78° C | 72% | 1018.4 hPa | 0 mm | - | 84 W/m² | - |
| 1777635908 | -1.67° C | 81% | 1018.2 hPa | 0 mm | - | 18 W/m² | - |
| 1777630508 | -1.67° C | 76% | 1018.9 hPa | 0 mm | - | 0 W/m² | - |
| 1777622410 | -1.11° C | 76% | 1020.4 hPa | 0 mm | - | 0 W/m² | - |
| 1777616112 | 0° C | 73% | 1020.6 hPa | 0 mm | - | 0 W/m² | - |
| 1777614314 | 0.56° C | 71% | 1020.4 hPa | 0 mm | - | 0 W/m² | - |
| 1777608915 | 4.44° C | 54% | 1020.2 hPa | 0 mm | - | 0 W/m² | - |
| 1777608019 | 4.44° C | 52% | 1020.2 hPa | 0 mm | - | 0 W/m² | - |
| 1777607115 | 4.44° C | 54% | 1020.1 hPa | 0 mm | - | 0 W/m² | - |
| 1777600809 | 8.89° C | 38% | 1019.1 hPa | 0 mm | - | 0 W/m² | - |
| 1777590010 | 12.78° C | 34% | 1018.5 hPa | 0 mm | - | 169 W/m² | - |
| 1777589118 | 13.33° C | 31% | 1018.6 hPa | 0 mm | - | 153 W/m² | - |
| 1777583718 | 13.33° C | 33% | 1019.1 hPa | 0 mm | - | 311 W/m² | - |
| 1777581920 | 13.33° C | 29% | 1019.3 hPa | 0 mm | - | 264 W/m² | - |
| 1777577418 | 12.22° C | 31% | 1019.8 hPa | 0 mm | - | 373 W/m² | - |
| 1777576533 | 11.67° C | 31% | 1019.9 hPa | 0 mm | - | 633 W/m² | - |
| 1777565704 | 8.89° C | 39% | 1021.7 hPa | 0 mm | - | 454 W/m² | - |
| 1777563903 | 9.44° C | 39% | 1021.9 hPa | 0 mm | - | 489 W/m² | - |
| 1777562104 | 8.89° C | 41% | 1022 hPa | 0 mm | - | 452 W/m² | - |
| 1777560303 | 7.78° C | 45% | 1022.1 hPa | 0 mm | - | 322 W/m² | - |
| 1777559404 | 7.22° C | 46% | 1022.1 hPa | 0 mm | - | 406 W/m² | - |
| 1777557604 | 4.44° C | 65% | 1022.2 hPa | 0 mm | - | 316 W/m² | - |
| 1777555807 | 0.56° C | 77% | 1022.3 hPa | 0 mm | - | 229 W/m² | - |
| 1777550420 | -3.33° C | 85% | 1022 hPa | 0 mm | - | 9 W/m² | - |
* Rain latest hour (hover to see other rain measurements)
** Current wind speed in m/s (hover to see current wind gust speed)